Time;durP1;ratioP1;P1;durP2;ratioP2;P2;SDS_P1;SDS_P2;PMS_P1;PMS_P2;Temp;Humidity;BMP_temperature;BMP_pressure;BME280_temperature;BME280_humidity;BME280_pressure;Samples;Min_cycle;Max_cycle;Signal;HPM_P1;HPM_P2
2022/08/21 00:01:41;;;;;;;4.68;2.45;;;14.80;99.90;;;;;;5033266;28;20108;-79
2022/08/21 00:04:09;;;;;;;5.28;2.33;;;14.80;99.90;;;;;;5047559;28;20119;-76
2022/08/21 00:06:36;;;;;;;4.32;2.13;;;14.80;99.90;;;;;;5069646;28;20036;-78
2022/08/21 00:09:04;;;;;;;8.75;3.13;;;14.80;99.90;;;;;;5068352;28;20043;-77
2022/08/21 00:11:29;;;;;;;6.65;2.92;;;14.80;99.90;;;;;;5048817;28;20071;-79
2022/08/21 00:13:55;;;;;;;8.45;3.03;;;14.70;99.90;;;;;;5049650;28;20040;-78
2022/08/21 00:16:21;;;;;;;6.60;3.13;;;14.80;99.90;;;;;;5047179;28;20044;-79
2022/08/21 00:18:46;;;;;;;9.23;3.13;;;14.70;99.90;;;;;;5049543;28;20067;-79
2022/08/21 00:21:14;;;;;;;6.30;3.20;;;14.70;99.90;;;;;;5065105;28;20060;-78
2022/08/21 00:23:39;;;;;;;5.97;3.25;;;14.70;99.90;;;;;;5066279;28;20052;-76
2022/08/21 00:26:05;;;;;;;5.55;3.03;;;14.70;99.90;;;;;;5045142;28;20401;-78
2022/08/21 00:28:31;;;;;;;5.30;3.60;;;14.60;99.90;;;;;;5047681;28;20557;-78
2022/08/21 00:30:57;;;;;;;5.53;3.20;;;14.60;99.90;;;;;;5035471;28;20043;-79
2022/08/21 00:33:24;;;;;;;6.90;3.38;;;14.60;99.90;;;;;;5046406;28;20051;-79
2022/08/21 00:35:50;;;;;;;9.52;3.00;;;14.60;99.90;;;;;;5050482;28;20049;-78
2022/08/21 00:38:16;;;;;;;6.68;3.70;;;14.50;99.90;;;;;;5069607;28;20443;-79
2022/08/21 00:40:50;;;;;;;7.43;3.78;;;14.50;99.90;;;;;;5067933;28;20117;-79
2022/08/21 00:43:19;;;;;;;6.05;3.40;;;14.50;99.90;;;;;;5049218;28;20044;-77
2022/08/21 00:45:45;;;;;;;6.35;3.13;;;14.40;99.90;;;;;;5046081;28;20044;-79
2022/08/21 00:48:10;;;;;;;6.72;3.42;;;14.40;99.90;;;;;;5067639;28;20151;-79
2022/08/21 00:50:43;;;;;;;5.95;2.85;;;14.40;99.90;;;;;;5029069;28;20630;-78
2022/08/21 00:53:10;;;;;;;32.80;4.57;;;14.40;99.90;;;;;;5048107;28;20063;-79
2022/08/21 00:55:37;;;;;;;7.43;4.05;;;14.30;99.90;;;;;;5046917;28;20041;-78
2022/08/21 00:58:05;;;;;;;8.63;3.63;;;14.30;99.90;;;;;;5065972;28;20078;-79
2022/08/21 01:00:33;;;;;;;8.50;3.72;;;14.30;99.90;;;;;;5046286;28;21250;-79
2022/08/21 01:03:01;;;;;;;7.60;3.53;;;14.20;99.90;;;;;;5059249;28;20059;-78
2022/08/21 01:05:27;;;;;;;5.45;3.28;;;14.20;99.90;;;;;;5049882;28;20036;-79
2022/08/21 01:07:56;;;;;;;5.65;3.28;;;14.20;99.90;;;;;;5049102;28;20052;-78
2022/08/21 01:10:22;;;;;;;7.68;4.18;;;14.20;99.90;;;;;;5048624;28;20055;-79
2022/08/21 01:12:51;;;;;;;9.40;3.67;;;14.20;99.90;;;;;;5045896;28;20044;-79
2022/08/21 01:15:18;;;;;;;3.28;1.95;;;14.10;99.90;;;;;;5066928;28;20100;-79
2022/08/21 01:17:43;;;;;;;9.23;3.63;;;14.10;99.90;;;;;;5048003;28;20155;-77
2022/08/21 01:20:12;;;;;;;8.13;3.65;;;14.00;99.90;;;;;;5051324;28;20079;-79
2022/08/21 01:22:38;;;;;;;6.75;2.10;;;14.00;99.90;;;;;;5048073;28;20047;-79
2022/08/21 01:25:07;;;;;;;7.55;3.30;;;13.90;99.90;;;;;;5068837;28;20036;-77
2022/08/21 01:27:32;;;;;;;6.90;2.78;;;13.90;99.90;;;;;;5049995;28;20139;-77
2022/08/21 01:30:07;;;;;;;6.30;3.10;;;13.80;99.90;;;;;;5033613;28;20112;-78
2022/08/21 01:32:33;;;;;;;7.45;3.92;;;13.80;99.90;;;;;;5063290;28;20135;-77
2022/08/21 01:34:59;;;;;;;4.05;3.00;;;13.80;99.90;;;;;;5048839;28;20128;-79
2022/08/21 01:37:24;;;;;;;5.00;3.83;;;13.80;99.90;;;;;;5048629;28;20036;-78
2022/08/21 01:39:50;;;;;;;6.80;3.65;;;13.80;99.90;;;;;;5045401;28;20097;-79
2022/08/21 01:42:16;;;;;;;4.07;3.38;;;13.80;99.90;;;;;;5050782;28;20045;-79
2022/08/21 01:44:42;;;;;;;7.80;3.65;;;13.80;99.90;;;;;;5051213;28;20044;-79
2022/08/21 01:47:11;;;;;;;8.95;4.15;;;13.80;99.90;;;;;;5036063;28;20075;-79
2022/08/21 01:49:37;;;;;;;7.57;3.97;;;13.70;99.90;;;;;;5053172;28;20041;-79
2022/08/21 01:52:03;;;;;;;7.15;4.10;;;13.80;99.90;;;;;;5050229;28;20037;-77
2022/08/21 01:54:29;;;;;;;7.22;4.07;;;13.70;99.90;;;;;;5051969;28;20562;-79
2022/08/21 01:56:56;;;;;;;7.05;4.38;;;13.70;99.90;;;;;;5049591;28;20119;-77
2022/08/21 01:59:23;;;;;;;6.20;4.15;;;13.70;99.90;;;;;;5068343;28;20052;-79
2022/08/21 02:01:49;;;;;;;7.30;4.05;;;13.70;99.90;;;;;;5052052;28;20092;-79
2022/08/21 02:04:15;;;;;;;6.88;4.35;;;13.70;99.90;;;;;;5069003;28;20116;-79
2022/08/21 02:06:41;;;;;;;8.57;3.70;;;13.70;99.90;;;;;;5055537;28;20135;-79
2022/08/21 02:09:09;;;;;;;6.72;3.58;;;13.60;99.90;;;;;;5051007;28;20040;-79
2022/08/21 02:11:35;;;;;;;4.18;3.28;;;13.60;99.90;;;;;;5050192;28;20168;-78
2022/08/21 02:14:01;;;;;;;4.35;3.33;;;13.60;99.90;;;;;;5071446;28;20040;-79
2022/08/21 02:16:27;;;;;;;6.47;3.22;;;13.60;99.90;;;;;;5071042;28;20055;-79
2022/08/21 02:18:52;;;;;;;7.95;5.13;;;13.60;99.90;;;;;;5051680;28;20060;-79
2022/08/21 02:21:18;;;;;;;6.47;4.38;;;13.50;99.90;;;;;;5068461;28;20061;-77
2022/08/21 02:23:44;;;;;;;5.22;4.55;;;13.60;99.90;;;;;;5066171;28;20051;-79
2022/08/21 02:26:10;;;;;;;5.50;4.35;;;13.60;99.90;;;;;;5048895;28;20095;-79
2022/08/21 02:28:38;;;;;;;10.85;4.47;;;13.60;99.90;;;;;;5049526;28;20033;-79
2022/08/21 02:31:05;;;;;;;4.68;4.18;;;13.60;99.90;;;;;;5050886;28;20041;-79
2022/08/21 02:33:31;;;;;;;4.43;2.75;;;13.60;99.90;;;;;;5047405;28;20461;-79
2022/08/21 02:35:57;;;;;;;4.45;2.70;;;13.60;99.90;;;;;;5069696;28;20033;-78
2022/08/21 02:38:29;;;;;;;4.28;2.72;;;13.60;99.90;;;;;;5067941;28;20052;-79
2022/08/21 02:40:56;;;;;;;4.00;3.20;;;13.60;99.90;;;;;;5058161;28;20601;-78
2022/08/21 02:43:23;;;;;;;6.32;2.63;;;13.50;99.90;;;;;;5068001;28;20699;-79
2022/08/21 02:45:50;;;;;;;4.70;3.03;;;13.50;99.90;;;;;;5064111;28;20041;-78
2022/08/21 02:48:21;;;;;;;2.85;2.55;;;13.50;99.90;;;;;;5052763;28;20048;-79
2022/08/21 02:50:52;;;;;;;6.03;4.18;;;13.50;99.90;;;;;;5049898;28;20044;-79
2022/08/21 02:53:18;;;;;;;7.20;3.83;;;13.50;99.90;;;;;;5051297;28;20058;-77
2022/08/21 02:55:46;;;;;;;5.78;2.95;;;13.50;99.90;;;;;;5067063;28;20040;-79
2022/08/21 02:58:13;;;;;;;7.22;3.72;;;13.40;99.90;;;;;;5053889;28;20040;-79
2022/08/21 03:00:39;;;;;;;2.75;2.13;;;13.40;99.90;;;;;;5051487;28;20067;-78
2022/08/21 03:03:05;;;;;;;3.88;2.50;;;13.40;99.90;;;;;;5044367;28;20037;-79
2022/08/21 03:05:32;;;;;;;3.15;2.67;;;13.50;99.90;;;;;;5067809;28;20036;-79
2022/08/21 03:07:59;;;;;;;3.70;2.17;;;13.40;99.90;;;;;;5067948;28;20047;-78
2022/08/21 03:10:25;;;;;;;3.13;2.83;;;13.40;99.90;;;;;;5068082;28;20041;-79
2022/08/21 03:12:51;;;;;;;5.47;3.70;;;13.40;99.90;;;;;;5048700;28;20052;-79
2022/08/21 03:15:20;;;;;;;5.60;4.90;;;13.40;99.90;;;;;;5047967;28;20044;-79
2022/08/21 03:17:46;;;;;;;4.40;3.97;;;13.40;99.90;;;;;;5049915;28;20067;-79
2022/08/21 03:20:16;;;;;;;7.65;4.78;;;13.40;99.90;;;;;;5048871;28;20535;-78
2022/08/21 03:22:42;;;;;;;7.07;4.28;;;13.50;99.90;;;;;;5047898;28;20048;-76
2022/08/21 03:25:08;;;;;;;5.25;3.85;;;13.60;99.90;;;;;;5065485;28;20043;-79
2022/08/21 03:27:34;;;;;;;4.45;3.55;;;13.60;99.90;;;;;;5046705;28;20503;-78
2022/08/21 03:30:02;;;;;;;6.68;4.25;;;13.60;99.90;;;;;;5051989;28;20771;-79
2022/08/21 03:32:28;;;;;;;9.10;5.03;;;13.60;99.90;;;;;;5051136;28;20603;-79
2022/08/21 03:34:54;;;;;;;8.85;4.43;;;13.60;99.90;;;;;;5047792;28;20045;-79
2022/08/21 03:37:20;;;;;;;5.65;3.63;;;13.70;99.90;;;;;;5046701;28;20056;-79
2022/08/21 03:39:45;;;;;;;5.93;4.78;;;13.70;99.90;;;;;;5066842;28;20032;-76
2022/08/21 03:42:11;;;;;;;6.97;4.35;;;13.70;99.90;;;;;;5048171;28;22057;-76
2022/08/21 03:44:39;;;;;;;8.32;5.07;;;13.70;99.90;;;;;;5066460;28;20236;-79
2022/08/21 03:47:05;;;;;;;5.13;3.92;;;13.70;99.90;;;;;;5043409;28;20036;-78
2022/08/21 03:49:30;;;;;;;7.05;4.43;;;13.70;99.90;;;;;;5047829;28;20059;-79
2022/08/21 03:51:56;;;;;;;7.30;5.25;;;13.70;99.90;;;;;;5047845;28;20043;-79
2022/08/21 03:54:21;;;;;;;8.60;6.10;;;13.80;99.90;;;;;;5050330;28;20056;-76
2022/08/21 03:56:47;;;;;;;10.80;6.50;;;13.80;99.90;;;;;;5047942;28;20036;-79
2022/08/21 03:59:13;;;;;;;9.18;6.25;;;13.90;99.90;;;;;;5064910;28;20079;-79
2022/08/21 04:01:39;;;;;;;9.73;6.18;;;13.90;99.90;;;;;;5047144;28;20044;-78
2022/08/21 04:04:05;;;;;;;13.27;7.07;;;14.00;99.90;;;;;;5048257;28;20051;-79
2022/08/21 04:06:32;;;;;;;10.20;6.65;;;14.00;99.90;;;;;;5065489;28;20041;-78
2022/08/21 04:08:57;;;;;;;11.90;7.22;;;14.10;99.90;;;;;;5063091;28;20117;-79
2022/08/21 04:11:23;;;;;;;12.13;7.68;;;14.00;99.90;;;;;;5049314;28;20041;-78
2022/08/21 04:13:49;;;;;;;8.02;5.90;;;14.10;99.90;;;;;;5062580;28;20131;-76
2022/08/21 04:16:15;;;;;;;10.27;5.43;;;14.10;99.90;;;;;;5049326;28;20041;-79
2022/08/21 04:18:41;;;;;;;8.23;5.72;;;14.10;99.90;;;;;;5045887;28;20461;-79
2022/08/21 04:21:10;;;;;;;9.52;7.10;;;14.10;99.90;;;;;;5046524;28;20479;-78
2022/08/21 04:23:36;;;;;;;7.57;6.28;;;14.10;99.90;;;;;;5048696;28;20153;-76
2022/08/21 04:26:01;;;;;;;10.25;5.80;;;14.10;99.90;;;;;;5047943;28;20059;-76
2022/08/21 04:28:27;;;;;;;9.07;6.20;;;14.10;99.90;;;;;;5060059;28;20514;-77
2022/08/21 04:30:53;;;;;;;7.38;5.38;;;14.10;99.90;;;;;;5030277;28;20503;-78
2022/08/21 04:33:20;;;;;;;12.45;6.53;;;14.10;99.90;;;;;;5067541;28;20040;-79
2022/08/21 04:35:46;;;;;;;10.45;6.20;;;14.10;99.90;;;;;;5046849;28;20123;-79
2022/08/21 04:38:11;;;;;;;10.20;7.55;;;14.10;99.90;;;;;;5066264;28;20146;-79
2022/08/21 04:40:37;;;;;;;9.13;6.40;;;14.10;99.90;;;;;;5043001;28;20052;-78
2022/08/21 04:43:06;;;;;;;12.80;5.70;;;14.10;99.90;;;;;;5034965;28;20635;-78
2022/08/21 04:45:37;;;;;;;6.70;5.25;;;14.10;99.90;;;;;;5065518;28;20150;-78
2022/08/21 04:48:05;;;;;;;9.68;6.72;;;14.10;99.90;;;;;;5063579;28;20049;-79
2022/08/21 04:50:54;;;;;;;11.25;7.20;;;14.20;99.90;;;;;;5043132;28;20487;-76
2022/08/21 04:53:50;;;;;;;12.15;6.75;;;14.20;99.90;;;;;;5055992;28;20082;-78
2022/08/21 04:56:23;;;;;;;13.48;7.07;;;14.30;99.90;;;;;;5039613;28;20056;-79
2022/08/21 04:58:50;;;;;;;10.48;6.40;;;14.30;99.90;;;;;;5038784;28;20113;-76
2022/08/21 05:01:24;;;;;;;10.25;6.60;;;14.40;99.90;;;;;;5058271;28;20051;-79
2022/08/21 05:03:53;;;;;;;10.82;6.72;;;14.50;99.90;;;;;;5040907;28;20056;-79
2022/08/21 05:06:18;;;;;;;9.93;6.25;;;14.60;99.90;;;;;;5040072;28;20043;-77
2022/08/21 05:08:46;;;;;;;6.70;5.25;;;14.70;99.90;;;;;;5043696;28;20041;-77
2022/08/21 05:11:13;;;;;;;9.00;5.55;;;14.90;99.90;;;;;;5044884;28;20051;-79
2022/08/21 05:13:41;;;;;;;9.15;5.38;;;15.10;99.90;;;;;;5060959;28;20040;-79
2022/08/21 05:16:06;;;;;;;7.45;4.25;;;15.50;99.90;;;;;;5058345;28;20539;-79
2022/08/21 05:18:32;;;;;;;4.65;3.58;;;16.40;99.90;;;;;;5060834;28;20116;-77
2022/08/21 05:20:57;;;;;;;7.40;3.80;;;17.60;99.90;;;;;;5049557;28;20106;-79
2022/08/21 05:23:24;;;;;;;7.03;3.67;;;18.90;99.90;;;;;;5032391;28;20040;-80
2022/08/21 05:25:52;;;;;;;6.68;3.60;;;20.10;99.90;;;;;;5050382;28;20090;-77
2022/08/21 05:28:17;;;;;;;4.82;2.92;;;21.10;99.90;;;;;;5047435;28;20126;-79
2022/08/21 05:30:44;;;;;;;5.75;3.05;;;22.00;99.90;;;;;;5047703;28;20134;-79
2022/08/21 05:33:10;;;;;;;4.57;3.10;;;23.00;99.90;;;;;;5046534;28;20080;-79
2022/08/21 05:35:37;;;;;;;6.63;2.75;;;23.80;99.90;;;;;;5062271;28;20654;-77
2022/08/21 05:38:04;;;;;;;6.32;2.72;;;24.50;99.90;;;;;;5066380;28;20470;-80
2022/08/21 05:40:29;;;;;;;7.13;2.90;;;25.30;99.90;;;;;;5065565;28;20048;-80
2022/08/21 05:42:56;;;;;;;5.55;2.40;;;26.20;99.90;;;;;;5051196;28;20040;-80
2022/08/21 05:45:24;;;;;;;5.63;2.55;;;26.90;99.90;;;;;;5064785;28;20049;-79
2022/08/21 05:47:50;;;;;;;4.32;2.00;;;27.60;99.90;;;;;;5054820;28;20135;-78
2022/08/21 05:50:15;;;;;;;6.22;2.65;;;28.10;99.90;;;;;;5050760;28;20123;-79
2022/08/21 05:52:41;;;;;;;4.15;2.22;;;28.70;99.90;;;;;;5051726;28;20044;-80
2022/08/21 05:55:07;;;;;;;5.70;2.15;;;29.40;99.20;;;;;;5065229;28;20036;-77
2022/08/21 05:57:32;;;;;;;6.45;2.53;;;29.80;98.30;;;;;;5065179;28;20101;-80
2022/08/21 05:59:58;;;;;;;4.20;2.35;;;30.20;97.60;;;;;;5061121;28;20545;-77
2022/08/21 06:02:23;;;;;;;5.88;2.25;;;30.60;96.80;;;;;;5045729;28;20045;-80
2022/08/21 06:04:49;;;;;;;6.78;2.53;;;31.00;96.10;;;;;;5047067;28;20509;-77
2022/08/21 06:07:15;;;;;;;6.30;2.10;;;31.50;95.60;;;;;;5063674;28;20045;-78
2022/08/21 06:09:41;;;;;;;5.25;2.45;;;31.80;95.20;;;;;;5067783;28;20094;-78
2022/08/21 06:12:09;;;;;;;4.70;2.33;;;32.10;94.40;;;;;;5044368;28;20045;-77
2022/08/21 06:14:37;;;;;;;7.00;3.00;;;32.50;93.60;;;;;;5061948;28;20052;-81
2022/08/21 08:09:17;;;;;;;8.52;2.00;;;26.50;93.30;;;;;;5130758;27;20565;-81
2022/08/21 08:11:43;;;;;;;8.85;2.50;;;26.30;93.50;;;;;;5132189;27;20122;-81
2022/08/21 08:14:09;;;;;;;7.63;1.90;;;26.30;93.80;;;;;;5112494;27;20045;-80
2022/08/21 08:16:35;;;;;;;8.90;2.08;;;26.50;94.20;;;;;;5100993;28;20085;-81
2022/08/21 08:19:00;;;;;;;7.70;2.38;;;26.60;94.00;;;;;;5092915;27;20035;-81
2022/08/21 08:21:27;;;;;;;12.52;2.65;;;26.70;94.20;;;;;;5115668;27;20027;-81
2022/08/21 08:23:53;;;;;;;15.52;3.38;;;26.70;93.80;;;;;;5111787;27;20093;-81
2022/08/21 08:26:18;;;;;;;8.05;2.15;;;26.60;93.30;;;;;;5112303;27;20051;-79
2022/08/21 08:28:45;;;;;;;8.15;1.90;;;26.60;93.20;;;;;;5107547;27;20040;-80
2022/08/21 08:31:11;;;;;;;6.15;1.95;;;26.70;93.00;;;;;;5109656;27;20028;-79
2022/08/21 08:33:36;;;;;;;6.90;2.03;;;26.60;92.70;;;;;;5088760;28;20039;-81
2022/08/21 08:36:03;;;;;;;5.65;1.92;;;26.60;92.60;;;;;;5112255;27;20112;-80
2022/08/21 08:38:29;;;;;;;7.40;2.03;;;26.70;92.80;;;;;;5111933;27;20039;-80
2022/08/21 08:41:12;;;;;;;6.90;1.73;;;26.70;92.60;;;;;;5111373;27;20046;-80
2022/08/21 08:43:39;;;;;;;5.80;1.42;;;26.80;92.60;;;;;;5110911;27;20031;-81
2022/08/21 08:46:11;;;;;;;6.65;2.10;;;26.90;92.60;;;;;;5111518;27;20039;-80
2022/08/21 08:48:49;;;;;;;12.35;2.50;;;26.90;92.30;;;;;;5111391;27;20918;-79
2022/08/21 08:51:37;;;;;;;5.00;1.70;;;26.90;92.40;;;;;;5109884;27;20039;-81
2022/08/21 08:54:08;;;;;;;4.93;1.25;;;26.90;91.90;;;;;;5098390;27;20039;-80
2022/08/21 08:56:35;;;;;;;7.70;1.80;;;26.80;92.30;;;;;;5109520;27;20040;-81
2022/08/21 08:59:17;;;;;;;7.53;1.73;;;26.90;92.50;;;;;;5090404;27;20059;-81
2022/08/21 09:01:42;;;;;;;6.13;1.35;;;27.00;92.50;;;;;;5113028;27;20104;-81
2022/08/21 09:04:11;;;;;;;6.68;1.58;;;27.10;92.20;;;;;;5096089;28;20410;-81
2022/08/21 09:06:53;;;;;;;5.53;1.40;;;27.10;92.30;;;;;;5093311;27;20038;-80
2022/08/21 09:09:32;;;;;;;6.30;1.30;;;27.20;92.50;;;;;;5107915;27;20053;-81
2022/08/21 09:12:17;;;;;;;5.93;1.40;;;27.40;92.60;;;;;;5100255;27;20535;-81
2022/08/21 09:15:04;;;;;;;7.15;2.13;;;27.20;93.30;;;;;;5095748;28;20036;-81
2022/08/21 09:17:41;;;;;;;6.13;1.83;;;27.40;94.00;;;;;;5116651;27;20039;-79
2022/08/21 09:20:17;;;;;;;12.90;2.72;;;27.30;92.60;;;;;;5108453;28;20130;-79
2022/08/21 09:23:13;;;;;;;7.47;1.95;;;27.40;93.10;;;;;;5097923;27;20036;-80
2022/08/21 09:26:03;;;;;;;4.95;1.38;;;27.20;92.90;;;;;;5104722;28;20213;-82
2022/08/21 09:28:35;;;;;;;8.07;2.17;;;27.30;93.80;;;;;;5093138;28;20040;-82
2022/08/21 09:31:06;;;;;;;11.77;2.13;;;27.30;93.40;;;;;;5077775;28;20036;-82
2022/08/21 09:33:32;;;;;;;7.95;2.17;;;27.30;93.40;;;;;;5111405;28;20107;-82
2022/08/21 09:35:59;;;;;;;6.85;1.48;;;27.40;93.50;;;;;;5104218;27;20151;-81
2022/08/21 09:38:36;;;;;;;4.57;1.60;;;27.50;94.00;;;;;;5114870;28;20046;-81
2022/08/21 09:41:06;;;;;;;10.38;2.03;;;27.50;93.90;;;;;;5097381;28;20083;-81
2022/08/21 09:43:33;;;;;;;6.80;1.55;;;27.50;93.60;;;;;;5095530;28;20039;-82
2022/08/21 09:46:24;;;;;;;10.05;2.35;;;27.60;93.60;;;;;;5112592;28;20047;-82
2022/08/21 09:48:56;;;;;;;8.88;1.85;;;27.20;93.60;;;;;;5084749;27;20036;-83
2022/08/21 09:51:37;;;;;;;9.50;2.30;;;26.70;94.40;;;;;;5097233;28;20055;-83
2022/08/21 09:54:05;;;;;;;9.43;2.00;;;26.60;94.70;;;;;;5082065;28;20059;-83
2022/08/21 09:59:32;;;;;;;8.75;2.50;;;26.10;94.60;;;;;;5107008;28;20054;-83
2022/08/21 10:02:21;;;;;;;7.22;1.85;;;26.10;95.20;;;;;;5098307;28;20092;-82
2022/08/21 10:04:53;;;;;;;4.80;1.00;;;25.90;95.40;;;;;;5091211;28;20051;-82
2022/08/21 10:07:22;;;;;;;7.00;2.00;;;25.60;95.40;;;;;;5089674;28;20063;-82
2022/08/21 10:13:58;;;;;;;6.72;1.73;;;26.00;95.20;;;;;;5101728;27;20154;-83
2022/08/21 10:16:33;;;;;;;10.68;1.63;;;26.50;94.80;;;;;;5082383;28;20051;-82
2022/08/21 10:19:12;;;;;;;7.22;2.30;;;26.70;95.10;;;;;;5098475;27;20055;-83
2022/08/21 10:21:54;;;;;;;9.10;1.85;;;26.70;95.00;;;;;;5084478;28;20052;-82
2022/08/21 10:24:31;;;;;;;9.10;1.85;;;26.40;95.40;;;;;;5077302;28;20036;-83
2022/08/21 10:27:18;;;;;;;6.40;1.60;;;26.30;95.50;;;;;;5099979;27;20509;-81
2022/08/21 10:30:01;;;;;;;7.28;1.75;;;26.30;95.50;;;;;;5101655;28;20032;-80
2022/08/21 10:33:02;;;;;;;6.15;1.55;;;26.50;94.50;;;;;;5085668;28;20047;-81
2022/08/21 10:35:33;;;;;;;9.23;1.80;;;26.70;94.10;;;;;;5061599;28;20052;-82
2022/08/21 10:38:02;;;;;;;6.82;1.92;;;27.00;94.20;;;;;;5087269;28;20040;-80
2022/08/21 10:41:02;;;;;;;9.45;2.15;;;26.90;94.80;;;;;;5096803;28;20059;-81
2022/08/21 10:43:44;;;;;;;6.75;1.70;;;27.20;94.80;;;;;;5017684;28;20081;-82
2022/08/21 10:46:26;;;;;;;10.38;2.05;;;27.40;94.60;;;;;;5101971;28;20039;-82
2022/08/21 10:49:34;;;;;;;5.80;1.30;;;27.60;94.90;;;;;;5079705;28;20052;-83
2022/08/21 10:52:23;;;;;;;5.53;1.90;;;27.70;94.30;;;;;;5089833;28;20394;-81
2022/08/21 10:55:14;;;;;;;6.90;1.98;;;28.00;93.90;;;;;;5083304;28;20379;-80
2022/08/21 10:57:39;;;;;;;5.57;1.88;;;28.30;93.00;;;;;;5085689;28;20103;-82
2022/08/21 11:00:12;;;;;;;7.43;1.67;;;28.30;93.30;;;;;;5086378;27;20118;-82
2022/08/21 11:02:47;;;;;;;7.35;2.30;;;28.40;92.90;;;;;;5095406;28;20055;-80
2022/08/21 11:05:55;;;;;;;5.63;1.33;;;28.30;92.90;;;;;;5107102;27;20078;-79
2022/08/21 11:08:28;;;;;;;8.20;2.20;;;28.30;92.60;;;;;;5026312;28;20099;-80
2022/08/21 11:11:20;;;;;;;6.18;1.83;;;28.30;93.10;;;;;;5023583;28;20044;-82
2022/08/21 11:13:55;;;;;;;6.32;1.75;;;28.30;93.30;;;;;;5058149;28;20094;-83
2022/08/21 11:16:36;;;;;;;8.75;1.50;;;28.40;93.30;;;;;;5105572;28;20051;-79
2022/08/21 11:19:13;;;;;;;7.55;1.70;;;28.30;93.30;;;;;;5103542;27;20056;-79
2022/08/21 11:22:12;;;;;;;5.78;1.42;;;28.50;93.20;;;;;;5103428;27;20024;-80
2022/08/21 11:27:36;;;;;;;7.90;1.88;;;28.60;92.30;;;;;;5113739;22;20078;-80
2022/08/21 11:30:13;;;;;;;4.32;1.52;;;28.70;91.80;;;;;;5092146;28;20040;-81
2022/08/21 11:32:53;;;;;;;7.10;1.73;;;28.70;92.20;;;;;;5093401;28;20036;-82
2022/08/21 11:35:34;;;;;;;5.20;2.00;;;28.50;92.20;;;;;;5077107;28;20048;-80
2022/08/21 11:38:09;;;;;;;5.05;1.83;;;28.70;92.70;;;;;;5108370;28;20039;-78
2022/08/21 11:40:55;;;;;;;6.90;1.92;;;28.70;92.20;;;;;;5093478;28;20035;-81
2022/08/21 11:43:42;;;;;;;8.30;1.40;;;28.70;91.20;;;;;;5082195;28;20569;-81
2022/08/21 11:46:32;;;;;;;6.78;1.55;;;28.70;90.80;;;;;;5088615;28;20043;-81
2022/08/21 11:49:18;;;;;;;7.70;1.30;;;28.70;90.90;;;;;;5092695;28;20058;-81
2022/08/21 11:51:50;;;;;;;6.18;1.35;;;28.80;91.10;;;;;;5091923;28;20065;-79
2022/08/21 11:54:34;;;;;;;5.18;1.23;;;28.70;91.50;;;;;;5093688;28;20050;-81
2022/08/21 11:57:20;;;;;;;5.90;1.48;;;28.60;90.20;;;;;;5090526;28;21846;-79
2022/08/21 11:59:52;;;;;;;6.93;1.48;;;28.50;90.60;;;;;;5110543;28;20047;-79
2022/08/21 12:02:22;;;;;;;4.93;1.75;;;28.40;91.10;;;;;;5110285;28;20050;-80
2022/08/21 12:04:56;;;;;;;5.47;1.90;;;28.40;91.10;;;;;;5093221;28;20039;-78
2022/08/21 12:07:39;;;;;;;7.75;1.67;;;28.40;91.70;;;;;;5091717;28;20104;-79
2022/08/21 12:10:13;;;;;;;4.65;1.42;;;28.30;91.00;;;;;;5093914;28;20032;-79
2022/08/21 12:12:41;;;;;;;8.70;1.73;;;28.10;90.80;;;;;;5094172;28;20725;-80
2022/08/21 12:15:22;;;;;;;5.65;1.73;;;27.90;90.90;;;;;;5109992;28;20040;-80
2022/08/21 12:18:02;;;;;;;5.97;1.35;;;27.90;92.00;;;;;;5108464;28;20040;-80
2022/08/21 12:21:10;;;;;;;8.43;1.85;;;27.80;91.70;;;;;;5090371;28;20055;-80
2022/08/21 12:23:46;;;;;;;6.63;1.80;;;27.60;91.80;;;;;;5081339;28;20107;-79
2022/08/21 12:26:32;;;;;;;4.53;1.73;;;27.30;92.30;;;;;;5112408;28;20043;-80
2022/08/21 12:29:11;;;;;;;7.07;1.80;;;27.30;92.60;;;;;;5113161;28;20075;-80
2022/08/21 12:31:50;;;;;;;5.88;1.50;;;27.10;93.10;;;;;;5108591;28;20063;-78
2022/08/21 12:34:17;;;;;;;6.65;1.55;;;27.00;92.90;;;;;;5093728;28;20036;-80
2022/08/21 12:36:50;;;;;;;5.32;1.80;;;27.00;93.40;;;;;;5095346;28;20101;-81
2022/08/21 12:39:23;;;;;;;7.03;1.80;;;27.00;92.50;;;;;;5091706;28;20046;-78
2022/08/21 12:42:14;;;;;;;6.63;1.50;;;26.90;93.40;;;;;;5110344;28;20071;-80
2022/08/21 12:44:45;;;;;;;3.60;1.70;;;26.80;93.50;;;;;;5107538;28;20036;-80
2022/08/21 12:47:24;;;;;;;8.65;1.70;;;26.60;93.50;;;;;;5090323;28;20044;-80
2022/08/21 12:50:10;;;;;;;9.00;2.35;;;26.50;93.60;;;;;;5109228;28;20043;-80
2022/08/21 12:52:42;;;;;;;7.72;2.15;;;26.50;92.90;;;;;;5090609;28;20051;-80
2022/08/21 12:55:15;;;;;;;6.68;1.75;;;26.60;93.30;;;;;;5081324;28;20051;-78
2022/08/21 12:57:41;;;;;;;6.43;2.10;;;26.80;93.90;;;;;;5095668;28;20047;-81
2022/08/21 13:00:13;;;;;;;5.63;1.65;;;27.00;93.20;;;;;;5094371;28;20036;-80
2022/08/21 13:02:47;;;;;;;6.95;1.65;;;27.00;93.40;;;;;;5112389;28;20036;-80
2022/08/21 13:05:19;;;;;;;5.60;1.80;;;27.10;93.50;;;;;;5112789;28;20046;-81
2022/08/21 13:07:50;;;;;;;4.25;1.23;;;27.10;93.70;;;;;;5094287;28;20093;-79
2022/08/21 13:10:27;;;;;;;9.02;2.28;;;27.20;93.60;;;;;;5096557;28;20795;-81
2022/08/21 13:13:00;;;;;;;8.82;1.67;;;27.00;93.30;;;;;;5096356;28;20068;-78
2022/08/21 13:15:30;;;;;;;6.65;1.63;;;26.90;93.40;;;;;;5096491;28;20560;-81
2022/08/21 13:18:03;;;;;;;7.50;1.48;;;26.80;94.00;;;;;;5112904;28;20036;-80
2022/08/21 13:20:37;;;;;;;6.15;1.75;;;26.80;94.40;;;;;;5092118;28;20566;-79
2022/08/21 13:23:07;;;;;;;7.97;2.45;;;26.60;93.40;;;;;;5112249;27;20115;-82
2022/08/21 13:25:36;;;;;;;5.45;1.60;;;26.50;94.00;;;;;;5094938;28;20070;-81
2022/08/21 13:28:08;;;;;;;7.63;2.17;;;26.40;94.40;;;;;;5094287;28;20051;-81
2022/08/21 13:30:38;;;;;;;9.38;2.10;;;26.30;94.80;;;;;;5097707;27;20044;-79
2022/08/21 13:33:05;;;;;;;8.07;2.03;;;26.20;95.20;;;;;;5094743;28;20434;-80
2022/08/21 13:35:51;;;;;;;6.20;1.73;;;26.30;95.80;;;;;;5113619;28;20081;-81
2022/08/21 13:38:19;;;;;;;;;;;26.40;95.50;;;;;;5096801;28;20091;-79
2022/08/21 13:40:52;;;;;;;5.45;2.35;;;26.50;95.40;;;;;;5094302;28;19924;-79
2022/08/21 13:43:22;;;;;;;8.85;2.38;;;26.70;95.50;;;;;;5115061;27;20312;-81
2022/08/21 13:45:52;;;;;;;6.13;1.77;;;26.70;95.30;;;;;;5095077;28;20409;-80
2022/08/21 13:48:19;;;;;;;10.73;2.17;;;26.70;95.00;;;;;;5095152;28;20127;-79
2022/08/21 13:50:45;;;;;;;6.07;1.35;;;26.40;94.70;;;;;;5092939;28;20059;-80
2022/08/21 13:53:33;;;;;;;6.25;2.17;;;26.20;94.50;;;;;;5095831;28;20050;-78
2022/08/21 13:56:00;;;;;;;5.65;1.40;;;26.20;95.00;;;;;;5112460;27;20070;-81
2022/08/21 13:58:32;;;;;;;5.70;1.63;;;26.30;95.20;;;;;;5110621;28;20066;-81
2022/08/21 14:01:00;;;;;;;6.93;1.77;;;26.50;95.10;;;;;;5096543;28;20044;-80
2022/08/21 14:03:41;;;;;;;9.38;2.15;;;26.30;94.60;;;;;;5095919;28;20115;-81
2022/08/21 14:06:21;;;;;;;5.35;1.90;;;26.20;94.50;;;;;;5111033;27;20043;-81
2022/08/21 14:08:53;;;;;;;8.80;1.65;;;26.00;94.50;;;;;;5109823;28;20055;-81
2022/08/21 14:11:19;;;;;;;7.80;1.63;;;25.80;95.00;;;;;;5078870;28;20123;-78
2022/08/21 14:13:55;;;;;;;7.80;1.38;;;25.60;95.00;;;;;;5096347;28;20529;-80
2022/08/21 14:16:25;;;;;;;5.72;1.45;;;25.60;94.90;;;;;;5112766;28;20126;-81
2022/08/21 14:19:00;;;;;;;8.07;1.90;;;25.50;95.30;;;;;;5108046;27;20092;-78
2022/08/21 14:21:38;;;;;;;7.72;1.95;;;25.40;95.00;;;;;;5099490;28;20157;-78
2022/08/21 14:24:21;;;;;;;5.20;1.55;;;25.30;95.50;;;;;;5096980;28;20031;-81
2022/08/21 14:27:01;;;;;;;3.58;1.20;;;25.20;95.20;;;;;;5096631;28;20102;-81
2022/08/21 14:29:32;;;;;;;5.82;1.20;;;25.10;95.10;;;;;;5077541;28;20043;-79
2022/08/21 14:31:59;;;;;;;5.50;1.65;;;25.00;95.20;;;;;;5075541;28;20044;-81
2022/08/21 14:34:27;;;;;;;3.75;2.03;;;25.30;95.30;;;;;;5092085;28;20048;-81
2022/08/21 14:36:54;;;;;;;6.88;1.98;;;25.30;95.20;;;;;;5093993;28;20050;-79
2022/08/21 14:39:20;;;;;;;5.45;1.13;;;25.50;95.60;;;;;;5095854;28;20036;-81
2022/08/21 14:41:48;;;;;;;9.63;1.30;;;25.60;94.70;;;;;;5111205;28;20101;-81
2022/08/21 14:44:15;;;;;;;6.20;1.30;;;25.60;94.60;;;;;;5110396;28;20046;-80
2022/08/21 14:46:41;;;;;;;5.82;1.42;;;25.70;94.20;;;;;;5094460;28;20051;-79
2022/08/21 14:49:07;;;;;;;4.35;1.17;;;25.70;94.20;;;;;;5111630;28;20031;-80
2022/08/21 14:51:33;;;;;;;8.07;1.67;;;25.70;94.20;;;;;;5093622;28;20090;-80
2022/08/21 14:53:59;;;;;;;4.70;1.00;;;25.60;94.70;;;;;;5092966;28;20042;-80
2022/08/21 14:56:25;;;;;;;6.47;1.70;;;25.60;94.60;;;;;;5094642;28;20050;-81
2022/08/21 14:58:52;;;;;;;7.05;1.65;;;25.50;94.70;;;;;;5094793;28;20420;-81
2022/08/21 15:01:20;;;;;;;8.70;1.70;;;25.40;94.50;;;;;;5112462;28;20431;-78
2022/08/21 15:03:48;;;;;;;10.80;1.92;;;25.30;94.60;;;;;;5093957;28;20043;-80
2022/08/21 15:06:14;;;;;;;5.28;1.00;;;25.20;94.70;;;;;;5093543;28;20059;-79
2022/08/21 15:08:40;;;;;;;6.43;1.48;;;25.00;94.70;;;;;;5111880;28;20054;-79